Argonia, Kansas
Current Conditions -  °F | °C
As of 11:53 AM on Saturday 25 Oct 2014 (Local Time) from KICT Reporting Station
Clear Clear  
Wind Chill: 77°   Ceiling: Unl
Heat Index: 79°   Visibility: 10mi
Dew Point: 62°   Wind: 5mph
Humidity: 60%   Direction: 100°E
Pressure: 30.06"   Gusts: NA
Location:  37.27°N, 97.77°W
Report Text: KICT 251653Z 10004KT 10SM CLR 25/17 A3006 RMK AO2 SLP170 T02500167
Loading
Personal Weather Stations






























Interactive Weather Map
Tropical Storm Tracking
New forecast layout! Learn more

10-Day Weather Forecast

Advertisements
Track Severe Weather on mobile